Time;durP1;ratioP1;P1;durP2;ratioP2;P2;SDS_P1;SDS_P2;PMS_P1;PMS_P2;Temp;Humidity;BMP_temperature;BMP_pressure;BME280_temperature;BME280_humidity;BME280_pressure;Samples;Min_cycle;Max_cycle;Signal;HPM_P1;HPM_P2
2023/01/28 00:00:48;;;;;;;11.87;8.10;;;3.40;99.90;;;;;;5073189;28;20509;-82
2023/01/28 00:03:18;;;;;;;13.10;10.17;;;3.30;99.90;;;;;;5062272;28;20467;-81
2023/01/28 00:05:44;;;;;;;14.70;9.67;;;3.40;99.90;;;;;;5071845;28;20450;-82
2023/01/28 00:08:12;;;;;;;12.40;9.40;;;3.50;99.90;;;;;;5067174;28;20859;-82
2023/01/28 00:10:41;;;;;;;15.00;11.53;;;3.50;99.90;;;;;;5070933;28;20461;-81
2023/01/28 00:13:11;;;;;;;13.97;9.47;;;3.50;99.90;;;;;;5065538;28;20462;-81
2023/01/28 00:15:38;;;;;;;12.87;9.73;;;3.40;99.90;;;;;;5072209;28;20497;-82
2023/01/28 00:18:05;;;;;;;13.93;9.93;;;3.40;99.90;;;;;;5069431;28;20566;-81
2023/01/28 00:20:31;;;;;;;16.30;11.40;;;3.50;99.90;;;;;;5058235;28;20483;-81
2023/01/28 00:22:58;;;;;;;11.17;9.20;;;3.50;99.90;;;;;;5059818;28;20555;-81
2023/01/28 00:25:25;;;;;;;11.50;9.40;;;3.40;99.90;;;;;;5067990;28;20481;-80
2023/01/28 00:27:53;;;;;;;12.40;9.80;;;3.40;99.90;;;;;;5066111;28;20461;-81
2023/01/28 00:30:20;;;;;;;11.70;8.73;;;3.40;99.90;;;;;;5059727;28;20553;-81
2023/01/28 00:32:47;;;;;;;12.33;9.43;;;3.40;99.90;;;;;;5065276;28;20470;-81
2023/01/28 00:35:14;;;;;;;15.00;10.50;;;3.30;99.90;;;;;;5066352;28;20482;-81
2023/01/28 00:37:40;;;;;;;11.30;9.50;;;3.30;99.90;;;;;;5058270;28;20869;-81
2023/01/28 00:40:09;;;;;;;12.23;9.07;;;3.20;99.90;;;;;;5050646;28;20493;-83
2023/01/28 00:42:36;;;;;;;11.33;8.90;;;3.20;99.90;;;;;;5065945;28;20467;-81
2023/01/28 00:45:07;;;;;;;13.70;9.83;;;3.20;99.90;;;;;;5067059;28;20880;-82
2023/01/28 00:47:34;;;;;;;11.47;9.63;;;3.20;99.90;;;;;;5067577;28;20460;-82
2023/01/28 00:50:01;;;;;;;13.37;8.93;;;3.20;99.90;;;;;;5072814;28;20853;-82
2023/01/28 00:52:28;;;;;;;12.90;9.77;;;3.20;99.90;;;;;;5066059;28;20502;-81
2023/01/28 00:54:56;;;;;;;13.00;8.87;;;3.30;99.90;;;;;;5063745;28;20475;-82
2023/01/28 00:57:23;;;;;;;11.03;8.13;;;3.40;99.90;;;;;;5063375;28;20484;-81
2023/01/28 00:59:49;;;;;;;11.23;8.90;;;3.30;99.90;;;;;;5071945;28;20487;-83
2023/01/28 01:02:18;;;;;;;10.30;8.10;;;3.40;99.90;;;;;;5064570;28;20459;-81
2023/01/28 01:04:53;;;;;;;10.37;8.10;;;3.30;99.90;;;;;;5065640;28;20553;-81
2023/01/28 01:07:21;;;;;;;9.80;7.37;;;3.40;99.90;;;;;;5062965;28;20481;-82
2023/01/28 01:09:48;;;;;;;9.53;7.90;;;3.40;99.90;;;;;;5073503;28;20449;-81
2023/01/28 01:12:16;;;;;;;10.27;8.50;;;3.40;99.90;;;;;;5080221;28;20561;-81
2023/01/28 01:14:43;;;;;;;13.93;8.07;;;3.30;99.90;;;;;;5081991;28;20487;-82
2023/01/28 01:17:10;;;;;;;10.23;8.33;;;3.10;99.90;;;;;;5079742;28;20551;-82
2023/01/28 01:19:38;;;;;;;7.97;6.57;;;3.00;99.90;;;;;;5089510;28;20499;-81
2023/01/28 01:22:05;;;;;;;11.60;8.23;;;3.10;99.90;;;;;;5082366;28;20487;-81
2023/01/28 01:24:32;;;;;;;9.03;7.50;;;3.20;99.90;;;;;;5084912;28;20617;-82
2023/01/28 01:26:59;;;;;;;13.00;8.60;;;3.20;99.90;;;;;;5088625;28;20873;-81
2023/01/28 01:29:27;;;;;;;12.00;7.73;;;3.10;99.90;;;;;;5078403;28;20562;-81
2023/01/28 01:31:54;;;;;;;11.10;7.57;;;3.10;99.90;;;;;;5079468;28;20466;-82
2023/01/28 01:34:21;;;;;;;12.10;8.17;;;3.10;99.90;;;;;;5074787;28;20516;-83
2023/01/28 01:36:49;;;;;;;11.90;9.40;;;3.10;99.90;;;;;;5073445;28;20833;-83
2023/01/28 01:39:16;;;;;;;10.93;8.87;;;3.00;99.90;;;;;;5073974;28;20417;-83
2023/01/28 01:41:43;;;;;;;10.77;9.57;;;2.90;99.90;;;;;;5068808;28;20483;-83
2023/01/28 01:44:43;;;;;;;10.70;8.53;;;3.00;99.90;;;;;;5071139;28;21063;-82
2023/01/28 01:47:10;;;;;;;10.07;7.10;;;2.80;99.90;;;;;;5068974;28;20448;-84
2023/01/28 01:49:37;;;;;;;9.10;7.40;;;2.90;99.90;;;;;;5059230;28;20450;-82
2023/01/28 01:52:11;;;;;;;9.53;6.83;;;2.80;99.90;;;;;;5058720;28;20467;-82
2023/01/28 01:54:41;;;;;;;8.17;7.00;;;2.80;99.90;;;;;;5068747;28;20489;-81
2023/01/28 01:57:12;;;;;;;10.03;6.50;;;2.80;99.90;;;;;;5069227;28;20530;-84
2023/01/28 01:59:42;;;;;;;7.77;6.87;;;2.90;99.90;;;;;;5076109;28;20935;-81
2023/01/28 02:02:11;;;;;;;7.70;6.13;;;2.90;99.90;;;;;;5069722;28;20459;-82
2023/01/28 02:04:41;;;;;;;6.80;5.90;;;2.90;99.90;;;;;;5068540;28;20477;-82
2023/01/28 02:07:12;;;;;;;11.30;6.90;;;2.90;99.90;;;;;;5068202;28;20575;-82
2023/01/28 02:09:40;;;;;;;10.30;8.20;;;3.00;99.90;;;;;;5076484;28;20797;-84
2023/01/28 02:12:12;;;;;;;9.40;7.10;;;3.00;99.90;;;;;;5071659;28;20513;-82
2023/01/28 02:14:43;;;;;;;11.30;8.13;;;2.90;99.90;;;;;;5072215;28;20467;-82
2023/01/28 02:17:10;;;;;;;8.73;7.70;;;3.00;99.90;;;;;;5069006;28;20847;-82
2023/01/28 02:19:40;;;;;;;18.30;11.30;;;2.90;99.90;;;;;;5072096;28;20450;-83
2023/01/28 02:22:39;;;;;;;16.00;10.43;;;2.90;99.90;;;;;;5069379;28;20482;-83
2023/01/28 02:25:33;;;;;;;11.10;7.30;;;3.00;99.90;;;;;;5059643;28;20475;-84
2023/01/28 02:28:20;;;;;;;7.47;5.67;;;2.80;99.90;;;;;;5069540;28;20815;-83
2023/01/28 02:30:55;;;;;;;7.50;5.83;;;2.60;99.90;;;;;;5075668;28;20528;-82
2023/01/28 02:33:29;;;;;;;7.80;6.03;;;2.60;99.90;;;;;;5066767;28;20466;-83
2023/01/28 02:35:56;;;;;;;8.97;6.70;;;2.60;99.90;;;;;;5069659;28;20526;-83
2023/01/28 02:38:28;;;;;;;8.97;5.30;;;2.70;99.90;;;;;;5061980;28;20419;-84
2023/01/28 02:41:04;;;;;;;7.87;6.40;;;2.70;99.90;;;;;;5047733;28;20890;-82
2023/01/28 02:43:35;;;;;;;10.50;5.68;;;2.70;99.90;;;;;;5069219;28;20470;-82
2023/01/28 02:48:57;;;;;;;5.03;4.40;;;2.80;99.90;;;;;;5066907;28;20960;-81
2023/01/28 02:51:38;;;;;;;5.80;4.60;;;2.70;99.90;;;;;;5065725;28;20463;-81
2023/01/28 02:54:12;;;;;;;6.73;5.07;;;2.60;99.90;;;;;;5059753;28;20479;-80
2023/01/28 02:56:45;;;;;;;7.03;4.73;;;2.60;99.90;;;;;;5061635;28;20472;-80
2023/01/28 02:59:32;;;;;;;6.47;4.90;;;2.70;99.90;;;;;;5060770;28;20460;-81
2023/01/28 03:02:07;;;;;;;5.43;4.93;;;2.80;99.90;;;;;;5073477;28;20569;-80
2023/01/28 03:04:39;;;;;;;7.13;4.90;;;2.60;99.90;;;;;;5064027;28;20490;-82
2023/01/28 03:07:09;;;;;;;13.83;5.73;;;2.60;99.90;;;;;;5034721;28;20909;-80
2023/01/28 03:09:36;;;;;;;8.40;6.90;;;2.60;99.90;;;;;;5058268;28;20465;-80
2023/01/28 03:37:21;;;;;;;9.23;6.70;;;2.80;99.90;;;;;;5055026;28;20478;-81
2023/01/28 03:39:48;;;;;;;9.63;7.10;;;2.70;99.90;;;;;;5065850;28;20454;-82
2023/01/28 03:42:17;;;;;;;7.70;6.20;;;2.60;99.90;;;;;;5063367;28;20478;-81
2023/01/28 03:44:50;;;;;;;8.80;6.63;;;2.70;99.90;;;;;;5065250;28;20490;-82
2023/01/28 03:47:20;;;;;;;8.50;6.73;;;2.60;99.90;;;;;;5062161;28;20881;-81
2023/01/28 03:49:49;;;;;;;6.20;5.60;;;2.70;99.90;;;;;;5072207;28;20457;-81
2023/01/28 03:52:17;;;;;;;10.70;5.53;;;2.70;99.90;;;;;;5066190;28;20459;-81
2023/01/28 03:54:46;;;;;;;8.10;5.23;;;2.70;99.90;;;;;;5065089;28;20492;-81
2023/01/28 03:57:13;;;;;;;8.47;6.07;;;2.80;99.90;;;;;;5052843;28;20455;-81
2023/01/28 03:59:42;;;;;;;7.20;6.00;;;2.70;99.90;;;;;;5058011;28;20478;-82
2023/01/28 04:02:10;;;;;;;7.27;6.57;;;2.70;99.90;;;;;;5056634;28;20495;-83
2023/01/28 04:04:38;;;;;;;7.93;5.90;;;2.70;99.90;;;;;;5065467;28;21056;-83
2023/01/28 04:07:09;;;;;;;8.60;6.80;;;2.80;99.90;;;;;;5052151;28;20463;-81
2023/01/28 04:09:36;;;;;;;8.33;6.73;;;2.80;99.90;;;;;;5067195;28;20546;-82
2023/01/28 04:12:04;;;;;;;8.13;7.27;;;2.70;99.90;;;;;;5062245;28;20477;-83
2023/01/28 04:14:32;;;;;;;6.70;5.50;;;2.70;99.90;;;;;;5068381;28;20532;-82
2023/01/28 04:16:59;;;;;;;9.77;6.72;;;2.60;99.90;;;;;;5060087;28;20497;-81
2023/01/28 04:19:27;;;;;;;9.10;7.10;;;2.60;99.90;;;;;;5065953;28;20593;-81
2023/01/28 04:21:55;;;;;;;8.20;6.83;;;2.60;99.90;;;;;;5058372;28;20225;-82
2023/01/28 04:24:22;;;;;;;7.80;6.07;;;2.60;99.90;;;;;;5077715;22;20926;-78
2023/01/28 04:26:49;;;;;;;7.87;6.87;;;2.50;99.90;;;;;;5030446;28;20922;-78
2023/01/28 04:29:16;;;;;;;8.00;5.70;;;2.50;99.90;;;;;;5025599;28;20454;-78
2023/01/28 04:31:43;;;;;;;8.47;7.57;;;2.40;99.90;;;;;;5028126;28;20471;-78
2023/01/28 04:34:10;;;;;;;9.13;7.20;;;2.40;99.90;;;;;;5030782;28;20467;-78
2023/01/28 04:36:37;;;;;;;9.50;7.97;;;2.50;99.90;;;;;;5018254;28;20479;-78
2023/01/28 04:39:05;;;;;;;8.43;6.53;;;2.50;99.90;;;;;;5003983;28;20457;-79
2023/01/28 04:41:32;;;;;;;8.10;5.03;;;2.50;99.90;;;;;;5011146;28;20587;-77
2023/01/28 04:43:58;;;;;;;7.75;6.10;;;2.60;99.90;;;;;;5002444;28;20473;-80
2023/01/28 04:46:25;;;;;;;10.10;6.63;;;2.50;99.90;;;;;;5027956;28;20198;-79
2023/01/28 04:48:52;;;;;;;7.33;6.63;;;2.40;99.90;;;;;;5027073;28;20202;-79
2023/01/28 04:51:19;;;;;;;7.13;5.50;;;2.50;99.90;;;;;;5024987;28;20467;-78
2023/01/28 04:53:46;;;;;;;9.23;6.75;;;2.50;99.90;;;;;;5034076;28;20547;-78
2023/01/28 04:56:14;;;;;;;7.20;6.03;;;2.60;99.90;;;;;;5028294;28;20199;-79
2023/01/28 04:58:41;;;;;;;8.07;6.50;;;2.50;99.90;;;;;;5016354;28;20480;-78
2023/01/28 05:01:07;;;;;;;6.47;5.53;;;2.50;99.90;;;;;;5024415;28;20491;-79
2023/01/28 05:03:34;;;;;;;5.53;4.80;;;2.50;99.90;;;;;;5027540;28;20445;-80
2023/01/28 05:06:01;;;;;;;7.53;5.37;;;2.40;99.90;;;;;;5018546;28;20560;-79
2023/01/28 05:08:28;;;;;;;8.60;4.90;;;2.40;99.90;;;;;;5033062;28;20450;-80
2023/01/28 05:10:55;;;;;;;7.50;5.10;;;2.50;99.90;;;;;;5025480;28;20447;-79
2023/01/28 05:13:23;;;;;;;6.30;4.80;;;2.60;99.90;;;;;;5025351;28;20444;-79
2023/01/28 05:15:53;;;;;;;8.33;6.50;;;2.60;99.90;;;;;;5012314;28;20512;-79
2023/01/28 05:18:20;;;;;;;6.80;5.67;;;2.70;99.90;;;;;;5019583;28;20447;-79
2023/01/28 05:20:47;;;;;;;5.83;4.60;;;2.60;99.90;;;;;;5017202;28;20802;-79
2023/01/28 05:23:14;;;;;;;6.63;5.53;;;2.60;99.90;;;;;;5017956;28;20450;-79
2023/01/28 05:25:41;;;;;;;6.30;5.47;;;2.60;99.90;;;;;;5005260;28;20486;-80
2023/01/28 05:28:08;;;;;;;10.60;6.88;;;2.60;99.90;;;;;;5019409;28;20478;-80
2023/01/28 05:30:37;;;;;;;5.78;5.18;;;2.50;99.90;;;;;;5002292;28;20200;-79
2023/01/28 05:33:04;;;;;;;5.35;4.82;;;2.40;99.90;;;;;;4999042;28;20218;-79
2023/01/28 05:35:31;;;;;;;7.47;5.70;;;2.50;99.90;;;;;;4998828;28;20243;-80
2023/01/28 05:37:57;;;;;;;6.03;5.30;;;2.50;99.90;;;;;;4999857;28;20454;-79
2023/01/28 05:40:24;;;;;;;6.20;5.53;;;2.50;99.90;;;;;;4998680;28;20212;-79
2023/01/28 05:42:51;;;;;;;6.50;5.55;;;2.40;99.90;;;;;;5011186;28;20232;-79
2023/01/28 05:45:18;;;;;;;6.17;5.53;;;2.40;99.90;;;;;;5018186;28;20228;-79
2023/01/28 05:47:46;;;;;;;7.53;4.90;;;2.50;99.90;;;;;;5018151;28;20824;-80
2023/01/28 05:50:14;;;;;;;13.70;6.43;;;2.40;99.90;;;;;;5022181;28;20543;-79
2023/01/28 05:52:41;;;;;;;6.35;5.40;;;2.30;99.90;;;;;;5033081;28;20446;-80
2023/01/28 05:55:08;;;;;;;8.70;6.20;;;2.20;99.90;;;;;;5034215;28;20225;-79
2023/01/28 05:57:35;;;;;;;8.85;5.65;;;2.20;99.90;;;;;;5019241;28;20472;-79
2023/01/28 06:00:03;;;;;;;7.32;6.05;;;2.10;99.90;;;;;;5016112;28;20213;-79
2023/01/28 06:02:29;;;;;;;7.00;6.30;;;2.20;99.90;;;;;;5019363;28;20214;-79
2023/01/28 06:04:58;;;;;;;7.37;6.30;;;2.30;99.90;;;;;;5012933;28;20485;-78
2023/01/28 06:07:24;;;;;;;8.87;6.50;;;2.20;99.90;;;;;;5010318;28;20941;-80
2023/01/28 06:09:51;;;;;;;7.60;6.80;;;2.30;99.90;;;;;;5016911;28;20557;-78
2023/01/28 06:12:18;;;;;;;6.50;5.80;;;2.20;99.90;;;;;;5025174;28;20454;-81
2023/01/28 06:14:45;;;;;;;7.13;6.03;;;2.30;99.90;;;;;;5032988;28;20496;-79
2023/01/28 06:17:11;;;;;;;7.47;6.38;;;2.30;99.90;;;;;;5035598;28;20518;-80
2023/01/28 06:19:38;;;;;;;10.20;6.80;;;2.20;99.90;;;;;;5022851;28;20286;-79
2023/01/28 06:22:06;;;;;;;7.73;6.37;;;2.30;99.90;;;;;;5017297;28;20222;-78
2023/01/28 06:24:33;;;;;;;8.98;6.20;;;2.30;99.90;;;;;;5016886;28;20460;-79
2023/01/28 06:27:00;;;;;;;10.10;7.17;;;2.30;99.90;;;;;;5016692;28;20237;-79
2023/01/28 06:29:27;;;;;;;7.23;5.83;;;2.40;99.90;;;;;;5017039;28;20456;-79
2023/01/28 06:31:54;;;;;;;7.70;5.93;;;2.40;99.90;;;;;;5033275;28;20420;-79
2023/01/28 06:34:21;;;;;;;9.40;6.00;;;2.30;99.90;;;;;;5028399;28;20484;-79
2023/01/28 06:36:49;;;;;;;6.22;5.63;;;2.20;99.90;;;;;;5014028;28;20217;-80
2023/01/28 06:39:17;;;;;;;6.57;5.87;;;2.30;99.90;;;;;;5024914;28;20225;-80
2023/01/28 06:41:44;;;;;;;7.95;6.43;;;2.20;99.90;;;;;;5025228;28;20934;-79
2023/01/28 06:44:11;;;;;;;6.55;5.57;;;2.30;99.90;;;;;;5022498;28;20225;-79
2023/01/28 06:46:38;;;;;;;8.13;6.50;;;2.20;99.90;;;;;;5024913;28;20646;-79
2023/01/28 06:49:07;;;;;;;7.30;5.55;;;2.20;99.90;;;;;;5012954;28;20471;-79
2023/01/28 06:51:34;;;;;;;7.05;6.05;;;2.20;99.90;;;;;;5025144;28;20214;-80
2023/01/28 06:54:00;;;;;;;8.43;5.85;;;2.20;99.90;;;;;;5035943;28;20614;-79
2023/01/28 06:56:29;;;;;;;6.60;5.80;;;2.10;99.90;;;;;;5022946;28;20210;-79
2023/01/28 06:58:55;;;;;;;8.52;6.88;;;2.10;99.90;;;;;;5017127;28;20215;-80
2023/01/28 07:01:22;;;;;;;8.55;7.68;;;2.10;99.90;;;;;;5017160;28;20228;-80
2023/01/28 07:03:49;;;;;;;10.00;6.35;;;2.10;99.90;;;;;;5016728;28;20255;-80
2023/01/28 07:06:16;;;;;;;8.73;6.32;;;2.20;99.90;;;;;;5017167;28;20609;-80
2023/01/28 07:08:42;;;;;;;8.13;7.17;;;2.20;99.90;;;;;;5026634;28;20296;-80
2023/01/28 07:11:09;;;;;;;8.80;6.60;;;2.30;99.90;;;;;;5015506;28;20822;-79
2023/01/28 07:13:37;;;;;;;9.67;6.80;;;2.10;99.90;;;;;;4996742;28;20454;-81
2023/01/28 07:16:05;;;;;;;7.57;6.00;;;2.00;99.90;;;;;;5003474;28;20467;-81
2023/01/28 07:18:31;;;;;;;9.35;6.18;;;2.10;99.90;;;;;;5004910;28;20759;-80
2023/01/28 07:20:58;;;;;;;9.38;5.38;;;2.20;99.90;;;;;;4996348;28;20213;-81
2023/01/28 07:23:25;;;;;;;7.90;6.35;;;2.20;99.90;;;;;;4997077;28;20231;-81
2023/01/28 07:25:52;;;;;;;5.18;4.55;;;2.20;99.90;;;;;;4996726;28;20660;-80
2023/01/28 07:28:20;;;;;;;10.07;6.28;;;2.20;99.90;;;;;;5000156;28;20289;-81
2023/01/28 07:30:50;;;;;;;7.13;6.30;;;2.20;99.90;;;;;;5015150;28;20206;-80
2023/01/28 07:33:17;;;;;;;11.03;6.07;;;2.20;99.90;;;;;;5016173;28;20229;-80
2023/01/28 07:35:44;;;;;;;10.18;6.50;;;2.20;99.90;;;;;;5016293;28;20473;-80
2023/01/28 07:38:11;;;;;;;14.03;7.67;;;2.20;99.90;;;;;;5015601;28;20297;-80
2023/01/28 07:40:38;;;;;;;12.40;6.88;;;2.20;99.90;;;;;;5014172;28;20468;-80
2023/01/28 07:43:06;;;;;;;11.20;6.63;;;2.20;99.90;;;;;;5013504;28;20591;-80
2023/01/28 07:45:33;;;;;;;9.23;5.80;;;2.20;99.90;;;;;;5013976;28;20478;-80
2023/01/28 07:48:03;;;;;;;9.00;7.17;;;2.10;99.90;;;;;;5026993;28;20212;-80
2023/01/28 07:50:32;;;;;;;7.18;6.03;;;2.10;99.90;;;;;;5018892;28;20802;-80
2023/01/28 07:53:02;;;;;;;6.87;5.47;;;2.20;99.90;;;;;;5010486;28;20572;-79
2023/01/28 07:55:29;;;;;;;7.60;5.97;;;2.20;99.90;;;;;;5013765;28;20478;-80
2023/01/28 07:57:57;;;;;;;9.80;7.20;;;2.30;99.90;;;;;;5014645;28;20549;-79
2023/01/28 08:00:25;;;;;;;8.98;6.20;;;2.30;99.90;;;;;;5016541;28;20454;-79
2023/01/28 08:02:56;;;;;;;8.45;6.90;;;2.40;99.90;;;;;;5012764;28;20221;-78
2023/01/28 08:05:25;;;;;;;8.10;6.70;;;2.50;99.90;;;;;;5003017;28;21025;-79
2023/01/28 08:07:52;;;;;;;10.10;6.90;;;2.40;99.90;;;;;;5006443;28;20865;-79
2023/01/28 08:10:20;;;;;;;10.13;7.30;;;2.50;99.90;;;;;;5007456;28;20455;-79
2023/01/28 08:12:54;;;;;;;10.07;6.83;;;2.50;99.90;;;;;;5020676;28;20460;-80
2023/01/28 08:15:22;;;;;;;9.00;7.50;;;2.60;99.90;;;;;;5020471;28;20496;-80
2023/01/28 08:17:49;;;;;;;18.13;7.67;;;2.60;99.90;;;;;;5002802;28;20548;-80
2023/01/28 08:20:16;;;;;;;8.30;6.40;;;2.50;99.90;;;;;;5020693;28;20481;-80
2023/01/28 08:22:44;;;;;;;9.73;7.27;;;2.50;99.90;;;;;;5023269;28;21016;-79
2023/01/28 08:25:11;;;;;;;10.93;8.20;;;2.40;99.90;;;;;;5012610;28;20563;-79
2023/01/28 08:27:38;;;;;;;8.60;7.03;;;2.40;99.90;;;;;;5023804;28;20535;-80
2023/01/28 08:30:06;;;;;;;9.73;7.50;;;2.40;99.90;;;;;;5026929;28;20218;-79
2023/01/28 08:32:33;;;;;;;10.43;7.93;;;2.60;99.90;;;;;;5018608;28;20451;-79
2023/01/28 08:35:00;;;;;;;10.68;9.05;;;2.60;99.90;;;;;;5029104;28;20473;-80
2023/01/28 08:37:27;;;;;;;12.60;7.50;;;2.50;99.90;;;;;;5020993;28;20824;-79
2023/01/28 08:39:55;;;;;;;11.13;8.67;;;2.50;99.90;;;;;;5017080;28;20461;-79
2023/01/28 08:42:22;;;;;;;10.18;7.60;;;2.70;99.90;;;;;;5022153;28;20503;-79
2023/01/28 08:44:48;;;;;;;10.48;8.05;;;2.60;99.90;;;;;;5016151;28;20226;-80
2023/01/28 08:47:15;;;;;;;17.60;8.57;;;2.60;99.90;;;;;;5014425;28;20206;-79
2023/01/28 08:49:42;;;;;;;10.30;8.23;;;2.70;99.90;;;;;;5015131;28;20541;-79
2023/01/28 08:52:09;;;;;;;10.87;8.73;;;2.70;99.90;;;;;;5014685;28;20815;-79
2023/01/28 08:54:36;;;;;;;11.20;7.53;;;2.60;99.90;;;;;;5011384;28;20477;-79
2023/01/28 08:57:04;;;;;;;17.25;8.95;;;2.70;99.90;;;;;;5018169;28;20476;-78
2023/01/28 08:59:31;;;;;;;12.05;7.97;;;2.70;99.90;;;;;;5026118;28;20203;-78
2023/01/28 09:01:58;;;;;;;10.10;7.47;;;2.70;99.90;;;;;;5011868;28;20371;-79
2023/01/28 09:04:25;;;;;;;12.77;8.60;;;2.70;99.90;;;;;;5027512;28;20471;-79
2023/01/28 09:06:52;;;;;;;8.77;7.50;;;2.60;99.90;;;;;;5010636;28;20457;-80
2023/01/28 09:09:18;;;;;;;8.63;7.40;;;2.70;99.90;;;;;;5015178;28;20536;-79
2023/01/28 09:11:45;;;;;;;8.00;6.90;;;2.40;99.90;;;;;;5018925;28;20457;-80
2023/01/28 09:14:13;;;;;;;7.90;6.40;;;2.40;99.90;;;;;;5031941;28;20840;-80
2023/01/28 09:16:40;;;;;;;8.25;7.32;;;2.40;99.90;;;;;;5016893;28;20460;-79
2023/01/28 09:19:07;;;;;;;9.50;7.00;;;2.50;99.90;;;;;;5009182;28;20289;-78
2023/01/28 09:21:34;;;;;;;9.80;6.97;;;2.40;99.90;;;;;;5015867;28;20453;-78
2023/01/28 09:24:00;;;;;;;10.27;6.53;;;2.50;99.90;;;;;;5012235;28;20481;-80
2023/01/28 09:26:33;;;;;;;9.53;7.27;;;2.70;99.90;;;;;;5022593;28;21042;-80
2023/01/28 09:29:00;;;;;;;8.20;5.93;;;2.60;99.90;;;;;;5010151;28;20890;-80
2023/01/28 09:31:29;;;;;;;7.00;6.30;;;2.50;99.90;;;;;;5018337;28;20463;-79
2023/01/28 09:33:56;;;;;;;7.77;6.10;;;2.70;99.90;;;;;;5037055;28;20207;-81
2023/01/28 09:36:23;;;;;;;7.80;5.60;;;2.80;99.90;;;;;;5021534;28;20459;-79
2023/01/28 09:38:50;;;;;;;9.20;6.57;;;3.10;99.90;;;;;;5031446;28;20991;-80
2023/01/28 09:41:25;;;;;;;10.23;6.17;;;3.00;99.90;;;;;;5020940;28;20942;-80
2023/01/28 09:44:12;;;;;;;13.10;7.33;;;3.00;99.90;;;;;;5024550;28;20473;-79
2023/01/28 09:46:44;;;;;;;9.20;7.63;;;3.00;99.90;;;;;;5023760;28;20897;-79
2023/01/28 09:49:20;;;;;;;9.90;7.90;;;3.10;99.90;;;;;;5031169;28;20484;-79
2023/01/28 09:51:52;;;;;;;7.30;6.50;;;3.30;99.90;;;;;;5037763;28;20443;-79
2023/01/28 09:54:32;;;;;;;12.63;7.13;;;3.20;99.90;;;;;;5037264;28;20483;-81
2023/01/28 09:57:04;;;;;;;10.63;7.60;;;3.20;99.90;;;;;;5036241;28;20448;-79
2023/01/28 09:59:33;;;;;;;9.60;8.60;;;3.00;99.90;;;;;;5035212;28;20427;-78
2023/01/28 10:02:13;;;;;;;10.33;8.23;;;3.00;99.90;;;;;;5035747;28;20958;-79
2023/01/28 10:04:54;;;;;;;12.25;8.63;;;3.10;99.90;;;;;;5015897;28;20477;-79
2023/01/28 10:07:32;;;;;;;9.40;8.50;;;3.30;99.90;;;;;;5015014;28;20742;-79
2023/01/28 10:10:04;;;;;;;9.50;8.30;;;3.40;99.90;;;;;;5014929;28;20455;-78
2023/01/28 10:12:54;;;;;;;9.27;8.13;;;3.60;99.90;;;;;;5016415;28;20585;-78
2023/01/28 10:15:42;;;;;;;9.10;8.13;;;3.50;99.90;;;;;;5016126;28;20842;-79
2023/01/28 10:18:11;;;;;;;9.50;7.73;;;3.70;99.90;;;;;;5013052;28;20464;-78
2023/01/28 10:20:43;;;;;;;13.00;9.90;;;3.70;99.90;;;;;;5009934;28;20467;-77
2023/01/28 10:23:18;;;;;;;12.90;11.57;;;3.60;99.90;;;;;;5029478;28;20470;-78
2023/01/28 10:25:47;;;;;;;11.37;9.70;;;3.40;99.90;;;;;;5069151;22;20504;-77
2023/01/28 10:28:20;;;;;;;8.57;6.97;;;3.50;99.90;;;;;;5082246;28;21022;-77
2023/01/28 10:30:48;;;;;;;9.10;8.20;;;3.50;99.90;;;;;;5083546;28;20507;-77
2023/01/28 10:33:20;;;;;;;10.40;9.40;;;3.30;99.90;;;;;;5073204;28;20457;-78
2023/01/28 10:35:47;;;;;;;11.27;8.40;;;3.50;99.90;;;;;;5069475;28;20471;-78
2023/01/28 10:38:17;;;;;;;8.57;7.67;;;3.60;99.90;;;;;;5074367;28;20558;-78
2023/01/28 10:40:46;;;;;;;11.37;9.70;;;3.60;99.90;;;;;;5070793;28;20486;-77
2023/01/28 10:43:15;;;;;;;8.53;7.13;;;3.60;99.90;;;;;;5076567;28;20834;-77
2023/01/28 10:45:49;;;;;;;10.03;8.27;;;3.40;99.90;;;;;;5079676;28;20490;-78
2023/01/28 10:48:23;;;;;;;7.07;6.43;;;3.60;99.90;;;;;;5068095;28;20446;-78
2023/01/28 10:50:51;;;;;;;7.80;6.73;;;3.60;99.90;;;;;;5078216;28;20466;-77
2023/01/28 10:53:18;;;;;;;8.07;7.27;;;3.70;99.90;;;;;;5076703;28;20447;-79
2023/01/28 10:55:50;;;;;;;14.50;8.10;;;3.60;99.90;;;;;;5072828;28;20479;-79
2023/01/28 10:58:20;;;;;;;9.97;8.63;;;3.40;99.90;;;;;;5078946;28;20442;-80
2023/01/28 11:00:53;;;;;;;9.93;8.87;;;3.30;99.90;;;;;;5072256;28;20470;-79
2023/01/28 11:03:23;;;;;;;8.20;7.07;;;3.20;99.90;;;;;;5076804;28;20471;-79
2023/01/28 11:05:57;;;;;;;10.20;8.87;;;3.20;99.90;;;;;;5083925;28;20475;-79
2023/01/28 11:08:25;;;;;;;13.23;10.63;;;3.20;99.90;;;;;;5072876;28;20458;-79
2023/01/28 11:10:53;;;;;;;15.57;10.30;;;3.00;99.90;;;;;;5075084;28;20473;-80
2023/01/28 11:13:22;;;;;;;12.00;9.50;;;3.00;99.90;;;;;;5072665;28;20453;-80
2023/01/28 11:15:51;;;;;;;16.13;10.47;;;3.00;99.90;;;;;;5074721;28;20475;-79
2023/01/28 11:18:20;;;;;;;9.90;8.10;;;3.00;99.90;;;;;;5077453;28;20431;-81
2023/01/28 11:20:55;;;;;;;9.87;8.60;;;3.10;99.90;;;;;;5073223;28;20455;-80
2023/01/28 11:23:25;;;;;;;10.27;9.17;;;3.20;99.90;;;;;;5079187;28;20569;-80
2023/01/28 11:26:03;;;;;;;10.40;8.80;;;3.20;99.90;;;;;;5080248;28;20478;-79
2023/01/28 11:28:31;;;;;;;9.63;7.80;;;3.20;99.90;;;;;;5083863;28;20437;-79
2023/01/28 11:31:00;;;;;;;7.93;6.93;;;3.00;99.90;;;;;;5074918;28;20453;-80
2023/01/28 11:33:32;;;;;;;7.57;6.77;;;3.10;99.90;;;;;;5072720;28;20514;-80
2023/01/28 11:36:08;;;;;;;9.03;8.00;;;3.20;99.90;;;;;;5074631;28;20479;-79
2023/01/28 11:38:35;;;;;;;12.20;8.35;;;3.30;99.90;;;;;;5073819;28;20445;-79
2023/01/28 11:41:01;;;;;;;10.30;7.20;;;3.40;99.90;;;;;;5080967;28;20617;-79
2023/01/28 11:43:30;;;;;;;10.00;7.80;;;3.20;99.90;;;;;;5076080;28;20838;-79
2023/01/28 11:46:08;;;;;;;8.70;7.17;;;3.30;99.90;;;;;;5075011;28;20565;-80
2023/01/28 11:48:45;;;;;;;9.40;8.13;;;3.50;99.90;;;;;;5074305;28;20471;-79
2023/01/28 11:51:22;;;;;;;8.30;7.40;;;3.60;99.90;;;;;;5074878;28;20459;-79
2023/01/28 11:54:00;;;;;;;17.23;9.60;;;3.60;99.90;;;;;;5082276;28;20450;-80
2023/01/28 11:56:53;;;;;;;9.40;7.20;;;3.70;99.90;;;;;;5075036;28;20474;-80
2023/01/28 11:59:33;;;;;;;11.13;8.63;;;3.80;99.90;;;;;;5071761;28;20618;-79
2023/01/28 12:02:08;;;;;;;7.67;6.27;;;3.80;99.90;;;;;;5073858;28;20443;-81
2023/01/28 12:04:52;;;;;;;9.80;8.60;;;3.70;99.90;;;;;;5078577;28;20858;-80
2023/01/28 12:07:36;;;;;;;9.83;7.67;;;3.80;99.90;;;;;;5067445;28;20447;-79
2023/01/28 12:10:15;;;;;;;10.20;7.90;;;3.80;99.90;;;;;;5085341;28;20444;-79
2023/01/28 12:12:58;;;;;;;9.77;7.77;;;3.70;99.90;;;;;;5093100;28;20489;-79
2023/01/28 12:15:45;;;;;;;10.53;7.90;;;3.70;99.90;;;;;;5083308;28;20455;-80
2023/01/28 12:18:24;;;;;;;13.73;8.70;;;3.90;99.90;;;;;;5069897;28;21030;-79
2023/01/28 12:20:57;;;;;;;10.20;7.50;;;4.00;99.90;;;;;;5066696;28;20451;-79
2023/01/28 12:23:36;;;;;;;10.10;8.30;;;4.40;99.90;;;;;;5073533;28;20486;-79
2023/01/28 12:26:09;;;;;;;10.90;8.50;;;4.70;99.90;;;;;;5072945;28;20489;-79
2023/01/28 12:28:55;;;;;;;15.83;8.30;;;4.80;99.90;;;;;;5073198;28;20490;-80
2023/01/28 12:31:52;;;;;;;11.97;8.73;;;5.20;99.90;;;;;;5074597;28;20446;-80
2023/01/28 12:34:40;;;;;;;11.70;9.27;;;5.40;99.90;;;;;;5059053;28;20428;-79
2023/01/28 12:37:16;;;;;;;12.97;9.70;;;6.00;99.90;;;;;;5066310;28;20548;-80
2023/01/28 12:39:57;;;;;;;12.93;9.00;;;6.10;99.90;;;;;;5068598;28;20681;-79
2023/01/28 12:42:35;;;;;;;9.73;7.30;;;6.20;99.90;;;;;;5071569;28;20865;-79
2023/01/28 12:45:11;;;;;;;10.77;9.17;;;6.20;99.90;;;;;;5075362;28;20854;-76
2023/01/28 12:47:41;;;;;;;11.30;8.20;;;5.90;99.90;;;;;;5074634;28;22144;-79
2023/01/28 12:50:15;;;;;;;10.63;8.87;;;5.80;99.90;;;;;;5068408;28;20453;-79
2023/01/28 12:52:48;;;;;;;11.70;8.17;;;5.70;99.90;;;;;;5072856;28;20463;-79
2023/01/28 12:55:20;;;;;;;11.00;8.47;;;5.70;99.90;;;;;;5072511;28;20467;-79
2023/01/28 12:57:48;;;;;;;10.87;8.70;;;5.70;99.90;;;;;;5073371;28;20464;-78
2023/01/28 13:00:25;;;;;;;8.60;7.20;;;6.60;99.90;;;;;;5073756;28;20952;-78
2023/01/28 13:03:02;;;;;;;9.93;7.87;;;7.00;99.90;;;;;;5072808;28;20924;-80
2023/01/28 13:05:34;;;;;;;8.40;7.60;;;7.80;99.90;;;;;;5076080;28;20480;-78
2023/01/28 13:08:05;;;;;;;10.03;9.03;;;8.70;94.10;;;;;;5073085;28;20935;-78
2023/01/28 13:10:38;;;;;;;9.33;7.90;;;8.20;92.70;;;;;;5071166;28;20540;-78
2023/01/28 13:13:06;;;;;;;10.03;9.07;;;8.10;93.90;;;;;;5074711;28;20450;-78
2023/01/28 13:15:40;;;;;;;9.83;7.90;;;7.70;94.40;;;;;;5082844;28;20495;-79
2023/01/28 13:18:06;;;;;;;10.10;7.90;;;7.20;95.10;;;;;;5076840;28;20441;-79
2023/01/28 13:20:39;;;;;;;10.00;8.43;;;6.90;97.40;;;;;;5076551;28;20906;-78
2023/01/28 13:23:23;;;;;;;11.40;8.07;;;6.70;99.90;;;;;;5073684;28;20454;-78
2023/01/28 13:25:52;;;;;;;10.20;7.90;;;5.70;99.90;;;;;;5076192;28;20477;-78
2023/01/28 13:28:28;;;;;;;9.20;7.73;;;5.60;99.90;;;;;;5075398;28;20448;-78
2023/01/28 13:31:02;;;;;;;9.53;8.00;;;5.40;99.90;;;;;;5083702;28;20450;-79
2023/01/28 13:33:32;;;;;;;10.43;8.80;;;5.50;99.90;;;;;;5075746;28;20492;-78
2023/01/28 13:36:07;;;;;;;9.60;8.57;;;5.50;99.90;;;;;;5086410;28;21027;-78